createdAt,value
2018-07-28T00:00:23.742Z,46.15
2018-07-28T00:01:02.800Z,46.64
2018-07-28T00:02:02.784Z,46.33
2018-07-28T00:03:02.807Z,45.87
2018-07-28T00:04:02.816Z,46.25
2018-07-28T00:05:02.831Z,46.35
2018-07-28T00:06:23.870Z,46.15
2018-07-28T00:07:02.881Z,46.74
2018-07-28T00:08:02.894Z,46.35
2018-07-28T00:09:02.919Z,46.62
2018-07-28T00:10:02.947Z,46.33
2018-07-28T00:11:02.971Z,46.45
2018-07-28T00:12:24.003Z,46.42
2018-07-28T00:13:03.006Z,46.45
2018-07-28T00:14:03.070Z,46.74
2018-07-28T00:15:03.053Z,46.35
2018-07-28T00:16:03.072Z,46.15
2018-07-28T00:17:03.089Z,46.74
2018-07-28T00:18:24.141Z,46.74
2018-07-28T00:19:03.158Z,46.42
2018-07-28T00:20:03.162Z,47.13
2018-07-28T00:21:03.178Z,46.45
2018-07-28T00:22:03.202Z,47.23
2018-07-28T00:23:03.223Z,46.72
2018-07-28T00:24:24.267Z,47.01
2018-07-28T00:25:03.289Z,47.32
2018-07-28T00:26:03.309Z,47.32
2018-07-28T00:27:03.304Z,46.74
2018-07-28T00:28:03.332Z,47.03
2018-07-28T00:29:03.379Z,47.30
2018-07-28T00:30:24.395Z,47.30
2018-07-28T00:31:03.401Z,46.81
2018-07-28T00:32:03.423Z,47.23
2018-07-28T00:33:03.443Z,47.01
2018-07-28T00:34:03.461Z,47.20
2018-07-28T00:35:03.484Z,47.01
2018-07-28T00:36:24.517Z,46.72
2018-07-28T00:37:03.536Z,47.59
2018-07-28T00:38:03.545Z,47.20
2018-07-28T00:39:03.649Z,47.30
2018-07-28T00:40:03.591Z,47.40
2018-07-28T00:41:03.619Z,47.30
2018-07-28T00:42:24.649Z,47.30
2018-07-28T00:43:03.656Z,47.49
2018-07-28T00:44:03.672Z,47.49
2018-07-28T00:45:03.714Z,47.20
2018-07-28T00:46:03.728Z,47.20
2018-07-28T00:47:03.744Z,47.11
2018-07-28T00:48:24.768Z,47.20
2018-07-28T00:49:03.787Z,47.20
2018-07-28T00:50:03.802Z,47.20
2018-07-28T00:51:03.839Z,47.11
2018-07-28T00:52:03.848Z,47.20
2018-07-28T00:53:03.878Z,47.01
2018-07-28T00:54:24.906Z,47.49
2018-07-28T00:55:03.915Z,47.01
2018-07-28T00:56:03.935Z,47.01
2018-07-28T00:57:03.953Z,47.49
2018-07-28T00:58:03.983Z,47.20
2018-07-28T00:59:04.014Z,47.40
2018-07-28T01:00:25.030Z,47.20
2018-07-28T01:01:04.047Z,47.20
2018-07-28T01:02:04.074Z,47.20
2018-07-28T01:03:04.083Z,47.11
2018-07-28T01:04:04.108Z,47.49
2018-07-28T01:05:04.129Z,47.32
2018-07-28T01:06:25.180Z,47.98
2018-07-28T01:07:04.181Z,47.49
2018-07-28T01:08:04.193Z,47.69
2018-07-28T01:09:04.212Z,47.40
2018-07-28T01:10:04.236Z,47.30
2018-07-28T01:11:04.253Z,47.78
2018-07-28T01:12:25.308Z,47.78
2018-07-28T01:13:04.301Z,47.69
2018-07-28T01:14:04.325Z,47.69
2018-07-28T01:15:04.343Z,48.18
2018-07-28T01:16:04.360Z,47.69
2018-07-28T01:17:04.389Z,47.69
2018-07-28T01:18:25.418Z,48.27
2018-07-28T01:19:04.433Z,48.27
2018-07-28T01:20:04.485Z,48.08
2018-07-28T01:21:04.470Z,48.18
2018-07-28T01:22:04.498Z,48.08
2018-07-28T01:23:04.522Z,48.27
2018-07-28T01:24:25.550Z,48.27
2018-07-28T01:25:04.554Z,48.08
2018-07-28T01:26:04.585Z,48.18
2018-07-28T01:27:04.607Z,47.98
2018-07-28T01:28:04.660Z,48.18
2018-07-28T01:29:04.647Z,48.18
2018-07-28T01:30:25.683Z,47.78
2018-07-28T01:31:04.685Z,48.08
2018-07-28T01:32:04.707Z,48.18
2018-07-28T01:33:04.746Z,47.98
2018-07-28T01:34:04.766Z,48.08
2018-07-28T01:35:04.777Z,47.88
2018-07-28T01:36:25.816Z,48.18
2018-07-28T01:37:05.002Z,47.96
2018-07-28T01:38:04.847Z,48.08
2018-07-28T01:39:04.854Z,48.25
2018-07-28T01:40:04.877Z,48.05
2018-07-28T01:41:04.901Z,48.83
2018-07-28T01:42:25.948Z,48.73
2018-07-28T01:43:04.941Z,48.25
2018-07-28T01:44:04.973Z,48.35
2018-07-28T01:45:04.984Z,48.35
2018-07-28T01:46:05.006Z,48.15
2018-07-28T01:47:05.032Z,48.35
2018-07-28T01:48:26.075Z,48.44
2018-07-28T01:49:05.074Z,48.25
2018-07-28T01:50:05.089Z,48.44
2018-07-28T01:51:05.110Z,48.64
2018-07-28T01:52:05.139Z,48.25
2018-07-28T01:53:05.160Z,48.83
2018-07-28T01:54:26.203Z,48.83
2018-07-28T01:55:05.208Z,48.93
2018-07-28T01:56:05.223Z,49.02
2018-07-28T01:57:05.236Z,49.02
2018-07-28T01:58:05.273Z,49.12
2018-07-28T01:59:05.285Z,49.02
2018-07-28T02:00:26.317Z,49.12
2018-07-28T02:01:05.326Z,49.22
2018-07-28T02:02:05.345Z,49.12
2018-07-28T02:03:05.377Z,49.32
2018-07-28T02:04:05.386Z,49.22
2018-07-28T02:05:05.417Z,48.93
2018-07-28T02:06:26.449Z,49.02
2018-07-28T02:07:05.456Z,48.83
2018-07-28T02:08:05.480Z,49.02
2018-07-28T02:09:05.497Z,48.83
2018-07-28T02:10:05.522Z,48.73
2018-07-28T02:11:05.536Z,48.64
2018-07-28T02:12:26.582Z,48.64
2018-07-28T02:13:05.581Z,48.73
2018-07-28T02:14:05.608Z,48.64
2018-07-28T02:15:05.624Z,48.64
2018-07-28T02:16:05.642Z,48.93
2018-07-28T02:17:05.671Z,48.64
2018-07-28T02:18:26.786Z,48.64
2018-07-28T02:19:05.711Z,48.73
2018-07-28T02:20:05.737Z,48.64
2018-07-28T02:21:05.754Z,48.44
2018-07-28T02:22:05.773Z,48.64
2018-07-28T02:23:05.800Z,48.35
2018-07-28T02:24:26.871Z,48.73
2018-07-28T02:25:05.841Z,48.95
2018-07-28T02:26:05.868Z,48.73
2018-07-28T02:27:05.885Z,48.64
2018-07-28T02:28:05.902Z,48.66
2018-07-28T02:29:05.923Z,48.27
2018-07-28T02:30:26.971Z,48.37
2018-07-28T02:31:05.973Z,48.47
2018-07-28T02:32:05.984Z,48.75
2018-07-28T02:33:06.004Z,48.85
2018-07-28T02:34:06.034Z,48.64
2018-07-28T02:35:06.052Z,49.02
2018-07-28T02:36:27.090Z,49.22
2018-07-28T02:37:06.093Z,48.83
2018-07-28T02:38:06.119Z,49.32
2018-07-28T02:39:06.219Z,49.51
2018-07-28T02:40:06.158Z,49.61
2018-07-28T02:41:06.180Z,50.09
2018-07-28T02:42:27.222Z,49.80
2018-07-28T02:43:06.228Z,49.90
2018-07-28T02:44:06.240Z,50.09
2018-07-28T02:45:06.267Z,49.51
2018-07-28T02:46:06.282Z,49.51
2018-07-28T02:47:06.309Z,49.82
2018-07-28T02:48:27.345Z,50.02
2018-07-28T02:49:06.364Z,49.54
2018-07-28T02:50:06.375Z,49.44
2018-07-28T02:51:06.391Z,49.44
2018-07-28T02:52:06.422Z,49.63
2018-07-28T02:53:06.436Z,49.44
2018-07-28T02:54:27.476Z,49.73
2018-07-28T02:55:06.485Z,49.63
2018-07-28T02:56:06.498Z,49.56
2018-07-28T02:57:06.517Z,49.46
2018-07-28T02:58:06.542Z,49.44
2018-07-28T02:59:06.560Z,49.66
2018-07-28T03:00:27.596Z,49.37
2018-07-28T03:01:06.611Z,49.37
2018-07-28T03:02:06.632Z,49.07
2018-07-28T03:03:06.653Z,49.27
2018-07-28T03:04:06.668Z,49.46
2018-07-28T03:05:06.697Z,49.37
2018-07-28T03:06:27.756Z,49.07
2018-07-28T03:07:06.737Z,49.17
2018-07-28T03:08:06.758Z,49.07
2018-07-28T03:09:06.797Z,49.07
2018-07-28T03:10:06.803Z,49.56
2018-07-28T03:11:06.815Z,49.17
2018-07-28T03:12:27.875Z,49.27
2018-07-28T03:13:06.863Z,49.17
2018-07-28T03:14:06.892Z,49.46
2018-07-28T03:15:06.916Z,49.27
2018-07-28T03:16:06.926Z,49.46
2018-07-28T03:17:06.956Z,49.27
2018-07-28T03:18:27.991Z,49.46
2018-07-28T03:19:06.999Z,49.29
2018-07-28T03:20:07.016Z,49.56
2018-07-28T03:21:07.033Z,49.29
2018-07-28T03:22:07.058Z,49.37
2018-07-28T03:23:07.085Z,49.29
2018-07-28T03:24:28.116Z,49.56
2018-07-28T03:25:07.119Z,49.07
2018-07-28T03:26:07.142Z,49.29
2018-07-28T03:27:07.170Z,49.39
2018-07-28T03:28:07.184Z,49.49
2018-07-28T03:29:07.210Z,49.49
2018-07-28T03:30:28.250Z,49.78
2018-07-28T03:31:07.254Z,49.58
2018-07-28T03:32:07.273Z,49.97
2018-07-28T03:33:07.292Z,50.16
2018-07-28T03:34:07.329Z,50.16
2018-07-28T03:35:07.335Z,49.97
2018-07-28T03:36:28.371Z,49.97
2018-07-28T03:37:07.383Z,50.56
2018-07-28T03:38:07.404Z,49.97
2018-07-28T03:39:07.424Z,50.43
2018-07-28T03:40:07.452Z,49.97
2018-07-28T03:41:07.488Z,50.07
2018-07-28T03:42:28.511Z,50.43
2018-07-28T03:43:07.516Z,50.16
2018-07-28T03:44:07.530Z,50.26
2018-07-28T03:45:07.554Z,51.04
2018-07-28T03:46:07.578Z,51.04
2018-07-28T03:47:07.620Z,51.04
2018-07-28T03:48:28.635Z,50.65
2018-07-28T03:49:07.640Z,50.95
2018-07-28T03:50:07.668Z,50.85
2018-07-28T03:51:07.689Z,50.65
2018-07-28T03:52:07.713Z,50.85
2018-07-28T03:53:07.735Z,50.85
2018-07-28T03:54:28.775Z,50.75
2018-07-28T03:55:07.777Z,50.75
2018-07-28T03:56:07.812Z,50.46
2018-07-28T03:57:07.816Z,50.75
2018-07-28T03:58:07.931Z,50.75
2018-07-28T03:59:07.867Z,50.85
2018-07-28T04:00:28.895Z,50.75
2018-07-28T04:01:07.899Z,51.04
2018-07-28T04:02:07.930Z,50.75
2018-07-28T04:03:07.944Z,51.04
2018-07-28T04:04:07.974Z,50.95
2018-07-28T04:05:07.992Z,50.65
2018-07-28T04:06:29.038Z,50.65
2018-07-28T04:07:08.031Z,50.95
2018-07-28T04:08:08.064Z,50.56
2018-07-28T04:09:08.077Z,50.65
2018-07-28T04:10:08.096Z,50.75
2018-07-28T04:11:08.121Z,51.14
2018-07-28T04:12:29.159Z,50.85
2018-07-28T04:13:08.161Z,51.14
2018-07-28T04:14:08.185Z,50.65
2018-07-28T04:15:08.210Z,51.14
2018-07-28T04:16:08.232Z,50.95
2018-07-28T04:17:08.261Z,51.04
2018-07-28T04:18:29.296Z,51.04
2018-07-28T04:19:08.298Z,51.43
2018-07-28T04:20:08.311Z,51.23
2018-07-28T04:21:08.334Z,50.85
2018-07-28T04:22:08.357Z,50.95
2018-07-28T04:23:08.373Z,52.21
2018-07-28T04:24:29.474Z,52.21
2018-07-28T04:25:08.431Z,51.53
2018-07-28T04:26:08.445Z,50.65
2018-07-28T04:27:08.464Z,51.14
2018-07-28T04:28:08.485Z,52.21
2018-07-28T04:29:08.529Z,51.04
2018-07-28T04:30:29.548Z,52.11
2018-07-28T04:31:08.562Z,51.53
2018-07-28T04:32:08.571Z,51.53
2018-07-28T04:33:08.593Z,52.21
2018-07-28T04:34:08.620Z,51.23
2018-07-28T04:35:08.640Z,51.62
2018-07-28T04:36:29.675Z,51.72
2018-07-28T04:37:08.751Z,51.72
2018-07-28T04:38:08.713Z,51.04
2018-07-28T04:39:08.744Z,50.85
2018-07-28T04:40:08.744Z,51.14
2018-07-28T04:41:08.770Z,50.75
2018-07-28T04:42:29.809Z,51.62
2018-07-28T04:43:08.810Z,52.11
2018-07-28T04:44:08.833Z,52.21
2018-07-28T04:45:08.861Z,52.21
2018-07-28T04:46:08.875Z,52.69
2018-07-28T04:47:08.902Z,52.59
2018-07-28T04:48:29.937Z,52.59
2018-07-28T04:49:08.966Z,52.69
2018-07-28T04:50:08.963Z,52.21
2018-07-28T04:51:08.982Z,52.59
2018-07-28T04:52:09.021Z,52.50
2018-07-28T04:53:09.027Z,52.98
2018-07-28T04:54:30.069Z,52.79
2018-07-28T04:55:09.068Z,52.59
2018-07-28T04:56:09.099Z,52.79
2018-07-28T04:57:09.119Z,52.59
2018-07-28T04:58:09.153Z,52.11
2018-07-28T04:59:09.171Z,52.40
2018-07-28T05:00:30.196Z,52.59
2018-07-28T05:01:09.231Z,52.11
2018-07-28T05:02:09.228Z,52.69
2018-07-28T05:03:09.258Z,52.50
2018-07-28T05:04:09.266Z,52.40
2018-07-28T05:05:09.284Z,51.82
2018-07-28T05:06:30.340Z,51.72
2018-07-28T05:07:09.336Z,52.01
2018-07-28T05:08:09.357Z,51.94
2018-07-28T05:09:09.372Z,51.92
2018-07-28T05:10:09.403Z,51.82
2018-07-28T05:11:09.433Z,52.11
2018-07-28T05:12:30.467Z,52.31
2018-07-28T05:13:09.464Z,51.92
2018-07-28T05:14:09.490Z,52.01
2018-07-28T05:15:09.508Z,52.14
2018-07-28T05:16:09.526Z,52.33
2018-07-28T05:17:09.613Z,52.23
2018-07-28T05:18:30.602Z,51.94
2018-07-28T05:19:09.706Z,52.23
2018-07-28T05:20:09.612Z,51.94
2018-07-28T05:21:09.637Z,51.94
2018-07-28T05:22:09.670Z,52.11
2018-07-28T05:23:09.688Z,52.04
2018-07-28T05:24:30.734Z,51.82
2018-07-28T05:25:09.738Z,51.82
2018-07-28T05:26:09.742Z,52.04
2018-07-28T05:27:09.773Z,52.04
2018-07-28T05:28:09.798Z,51.84
2018-07-28T05:29:09.810Z,52.11
2018-07-28T05:30:30.877Z,52.11
2018-07-28T05:31:09.850Z,51.84
2018-07-28T05:32:09.882Z,51.45
2018-07-28T05:33:09.901Z,51.17
2018-07-28T05:34:09.939Z,50.95
2018-07-28T05:35:09.947Z,51.84
2018-07-28T05:36:30.983Z,52.01
2018-07-28T05:37:09.998Z,51.75
2018-07-28T05:38:10.011Z,51.94
2018-07-28T05:39:10.100Z,51.65
2018-07-28T05:40:10.051Z,52.33
2018-07-28T05:41:10.079Z,52.62
2018-07-28T05:42:31.155Z,52.62
2018-07-28T05:43:10.117Z,52.50
2018-07-28T05:44:10.140Z,51.92
2018-07-28T05:45:10.160Z,52.98
2018-07-28T05:46:10.190Z,52.40
2018-07-28T05:47:10.209Z,51.14
2018-07-28T05:48:31.246Z,51.65
2018-07-28T05:49:10.257Z,52.14
2018-07-28T05:50:10.331Z,52.40
2018-07-28T05:51:10.291Z,52.43
2018-07-28T05:52:10.317Z,52.50
2018-07-28T05:53:10.340Z,52.50
2018-07-28T05:54:31.381Z,52.53
2018-07-28T05:55:10.389Z,52.23
2018-07-28T05:56:10.405Z,52.50
2018-07-28T05:57:10.434Z,52.50
2018-07-28T05:58:10.445Z,52.50
2018-07-28T05:59:10.473Z,52.62
2018-07-28T06:00:31.509Z,51.92
2018-07-28T06:01:10.509Z,52.31
2018-07-28T06:02:10.599Z,52.04
2018-07-28T06:03:10.558Z,52.72
2018-07-28T06:04:10.581Z,52.50
2018-07-28T06:05:10.598Z,52.62
2018-07-28T06:06:31.636Z,52.98
2018-07-28T06:07:10.644Z,53.01
2018-07-28T06:08:10.671Z,52.82
2018-07-28T06:09:10.696Z,53.50
2018-07-28T06:10:10.734Z,53.30
2018-07-28T06:11:10.730Z,52.62
2018-07-28T06:12:31.767Z,52.62
2018-07-28T06:13:10.773Z,53.20
2018-07-28T06:14:10.865Z,52.62
2018-07-28T06:15:10.819Z,52.92
2018-07-28T06:16:10.853Z,52.72
2018-07-28T06:17:10.860Z,52.59
2018-07-28T06:18:31.900Z,52.79
2018-07-28T06:19:10.932Z,52.82
2018-07-28T06:20:10.971Z,53.01
2018-07-28T06:21:11.021Z,52.72
2018-07-28T06:22:10.970Z,52.43
2018-07-28T06:23:10.991Z,52.40
2018-07-28T06:24:32.027Z,53.11
2018-07-28T06:25:11.034Z,52.82
2018-07-28T06:26:11.061Z,52.72
2018-07-28T06:27:11.077Z,52.92
2018-07-28T06:28:11.095Z,52.69
2018-07-28T06:29:11.135Z,52.62
2018-07-28T06:30:32.159Z,52.82
2018-07-28T06:31:13.610Z,52.79
2018-07-28T06:32:11.185Z,52.59
2018-07-28T06:33:11.211Z,53.30
2018-07-28T06:34:11.238Z,53.01
2018-07-28T06:35:11.252Z,52.92
2018-07-28T06:36:32.339Z,53.40
2018-07-28T06:37:11.298Z,53.08
2018-07-28T06:38:11.325Z,53.08
2018-07-28T06:39:11.339Z,53.18
2018-07-28T06:40:11.358Z,53.08
2018-07-28T06:41:11.388Z,53.11
2018-07-28T06:42:32.435Z,53.08
2018-07-28T06:43:11.429Z,52.89
2018-07-28T06:44:11.448Z,53.08
2018-07-28T06:45:11.471Z,53.28
2018-07-28T06:46:11.489Z,53.08
2018-07-28T06:47:11.560Z,52.98
2018-07-28T06:48:32.549Z,53.67
2018-07-28T06:49:11.557Z,53.08
2018-07-28T06:50:11.579Z,53.38
2018-07-28T06:51:11.602Z,53.47
2018-07-28T06:52:11.632Z,53.67
2018-07-28T06:53:11.648Z,53.67
2018-07-28T06:54:32.677Z,54.05
2018-07-28T06:55:11.702Z,53.47
2018-07-28T06:56:11.720Z,53.50
2018-07-28T06:57:11.761Z,53.67
2018-07-28T06:58:11.752Z,53.28
2018-07-28T06:59:11.781Z,53.86
2018-07-28T07:00:32.817Z,53.89
2018-07-28T07:01:11.824Z,53.96
2018-07-28T07:02:11.850Z,53.79
2018-07-28T07:03:11.879Z,53.67
2018-07-28T07:04:11.898Z,54.08
2018-07-28T07:05:11.905Z,53.79
2018-07-28T07:06:32.958Z,54.05
2018-07-28T07:07:11.949Z,53.79
2018-07-28T07:08:11.972Z,53.69
2018-07-28T07:09:11.993Z,53.99
2018-07-28T07:10:12.025Z,53.57
2018-07-28T07:11:12.045Z,53.59
2018-07-28T07:12:33.077Z,54.18
2018-07-28T07:13:12.096Z,53.69
2018-07-28T07:14:12.106Z,53.79
2018-07-28T07:15:12.124Z,53.69
2018-07-28T07:16:12.146Z,53.50
2018-07-28T07:17:12.166Z,53.69
2018-07-28T07:18:33.221Z,53.77
2018-07-28T07:19:12.222Z,53.67
2018-07-28T07:20:12.233Z,53.96
2018-07-28T07:21:12.260Z,53.59
2018-07-28T07:22:12.276Z,54.08
2018-07-28T07:23:12.298Z,53.99
2018-07-28T07:24:33.333Z,54.15
2018-07-28T07:25:12.340Z,53.79
2018-07-28T07:26:12.364Z,54.08
2018-07-28T07:27:12.386Z,53.69
2018-07-28T07:28:12.421Z,53.99
2018-07-28T07:29:12.428Z,53.79
2018-07-28T07:30:33.555Z,54.28
2018-07-28T07:31:12.483Z,53.89
2018-07-28T07:32:12.495Z,54.18
2018-07-28T07:33:12.527Z,54.35
2018-07-28T07:34:12.542Z,53.79
2018-07-28T07:35:12.575Z,53.59
2018-07-28T07:36:33.613Z,53.89
2018-07-28T07:37:12.604Z,53.69
2018-07-28T07:38:12.634Z,53.79
2018-07-28T07:39:12.648Z,53.89
2018-07-28T07:40:12.668Z,53.69
2018-07-28T07:41:12.690Z,53.77
2018-07-28T07:42:33.729Z,53.89
2018-07-28T07:43:12.737Z,53.99
2018-07-28T07:44:12.784Z,54.57
2018-07-28T07:45:12.782Z,54.15
2018-07-28T07:46:12.804Z,54.47
2018-07-28T07:47:12.978Z,53.77
2018-07-28T07:48:33.864Z,53.79
2018-07-28T07:49:12.880Z,53.99
2018-07-28T07:50:12.889Z,54.38
2018-07-28T07:51:12.908Z,54.47
2018-07-28T07:52:12.955Z,54.08
2018-07-28T07:53:12.960Z,54.76
2018-07-28T07:54:34.002Z,54.76
2018-07-28T07:55:13.032Z,54.28
2018-07-28T07:56:13.023Z,54.05
2018-07-28T07:57:13.042Z,54.18
2018-07-28T07:58:13.066Z,54.66
2018-07-28T07:59:13.088Z,54.47
2018-07-28T08:00:34.141Z,54.57
2018-07-28T08:01:13.125Z,54.47
2018-07-28T08:02:13.157Z,53.99
2018-07-28T08:03:13.185Z,53.69
2018-07-28T08:04:13.196Z,53.77
2018-07-28T08:05:13.220Z,53.77
2018-07-28T08:06:34.321Z,53.96
2018-07-28T08:07:13.260Z,53.47
2018-07-28T08:08:13.289Z,54.25
2018-07-28T08:09:13.318Z,53.96
2018-07-28T08:10:13.327Z,54.35
2018-07-28T08:11:13.358Z,54.44
2018-07-28T08:12:34.417Z,54.54
2018-07-28T08:13:13.402Z,54.42
2018-07-28T08:14:13.418Z,54.32
2018-07-28T08:15:13.449Z,55.10
2018-07-28T08:16:13.456Z,55.10
2018-07-28T08:17:13.486Z,55.68
2018-07-28T08:18:34.522Z,55.39
2018-07-28T08:19:13.547Z,55.39
2018-07-28T08:20:13.543Z,55.19
2018-07-28T08:21:13.579Z,55.39
2018-07-28T08:22:13.594Z,55.29
2018-07-28T08:23:13.612Z,55.10
2018-07-28T08:24:34.982Z,55.68
2018-07-28T08:25:13.649Z,55.39
2018-07-28T08:26:13.672Z,55.39
2018-07-28T08:27:13.697Z,55.10
2018-07-28T08:28:13.711Z,55.39
2018-07-28T08:29:13.736Z,55.39
2018-07-28T08:30:34.778Z,55.10
2018-07-28T08:31:13.777Z,55.65
2018-07-28T08:32:13.802Z,55.58
2018-07-28T08:33:13.824Z,55.39
2018-07-28T08:34:13.850Z,55.29
2018-07-28T08:35:13.873Z,55.29
2018-07-28T08:36:34.918Z,55.29
2018-07-28T08:37:13.925Z,55.29
2018-07-28T08:38:13.930Z,55.29
2018-07-28T08:39:13.950Z,55.19
2018-07-28T08:40:13.973Z,55.68
2018-07-28T08:41:14.007Z,55.29
2018-07-28T08:42:35.046Z,55.00
2018-07-28T08:43:14.040Z,55.19
2018-07-28T08:44:14.074Z,55.22
2018-07-28T08:45:14.094Z,54.83
2018-07-28T08:46:14.113Z,54.74
2018-07-28T08:47:14.128Z,54.90
2018-07-28T08:48:35.163Z,55.19
2018-07-28T08:49:14.254Z,54.93
2018-07-28T08:50:14.199Z,54.93
2018-07-28T08:51:14.222Z,54.93
2018-07-28T08:52:14.236Z,55.13
2018-07-28T08:53:14.264Z,55.13
2018-07-28T08:54:35.361Z,55.22
2018-07-28T08:55:14.312Z,55.13
2018-07-28T08:56:14.327Z,54.83
2018-07-28T08:57:14.342Z,54.83
2018-07-28T08:58:14.375Z,55.13
2018-07-28T08:59:14.392Z,54.64
2018-07-28T09:00:35.433Z,54.54
2018-07-28T09:01:14.433Z,54.64
2018-07-28T09:02:14.460Z,54.35
2018-07-28T09:03:14.475Z,54.54
2018-07-28T09:04:14.505Z,54.64
2018-07-28T09:05:14.522Z,54.74
2018-07-28T09:06:35.589Z,54.35
2018-07-28T09:07:14.561Z,54.64
2018-07-28T09:08:14.583Z,54.64
2018-07-28T09:09:14.615Z,54.25
2018-07-28T09:10:14.627Z,54.35
2018-07-28T09:11:14.647Z,54.35
2018-07-28T09:12:35.692Z,54.44
2018-07-28T09:13:14.692Z,54.15
2018-07-28T09:14:14.785Z,54.25
2018-07-28T09:15:14.770Z,54.28
2018-07-28T09:16:14.760Z,54.35
2018-07-28T09:17:14.779Z,54.25
2018-07-28T09:18:35.816Z,54.74
2018-07-28T09:19:14.823Z,54.25
2018-07-28T09:20:14.849Z,54.25
2018-07-28T09:21:14.864Z,54.25
2018-07-28T09:22:14.887Z,54.44
2018-07-28T09:23:14.921Z,54.44
2018-07-28T09:24:35.968Z,54.25
2018-07-28T09:25:14.956Z,54.25
2018-07-28T09:26:14.984Z,54.15
2018-07-28T09:27:14.995Z,54.54
2018-07-28T09:28:15.020Z,54.44
2018-07-28T09:29:15.043Z,54.35
2018-07-28T09:30:36.152Z,54.35
2018-07-28T09:31:15.096Z,54.35
2018-07-28T09:32:15.108Z,54.05
2018-07-28T09:33:15.132Z,54.25
2018-07-28T09:34:15.151Z,54.28
2018-07-28T09:35:15.172Z,54.38
2018-07-28T09:36:36.205Z,54.38
2018-07-28T09:37:15.216Z,54.54
2018-07-28T09:38:15.231Z,54.54
2018-07-28T09:39:15.259Z,54.05
2018-07-28T09:40:15.276Z,54.54
2018-07-28T09:41:15.312Z,54.38
2018-07-28T09:42:36.349Z,54.66
2018-07-28T09:43:15.358Z,54.35
2018-07-28T09:44:15.364Z,54.35
2018-07-28T09:45:15.403Z,54.25
2018-07-28T09:46:15.430Z,54.38
2018-07-28T09:47:15.432Z,54.38
2018-07-28T09:48:36.470Z,54.38
2018-07-28T09:49:15.472Z,54.25
2018-07-28T09:50:15.497Z,54.57
2018-07-28T09:51:15.518Z,54.54
2018-07-28T09:52:15.538Z,54.35
2018-07-28T09:53:15.579Z,54.35
2018-07-28T09:54:36.606Z,54.47
2018-07-28T09:55:15.616Z,54.66
2018-07-28T09:56:15.662Z,54.54
2018-07-28T09:57:15.650Z,54.28
2018-07-28T09:58:15.672Z,54.28
2018-07-28T09:59:15.694Z,54.18
2018-07-28T10:00:36.729Z,54.38
2018-07-28T10:01:15.735Z,54.54
2018-07-28T10:02:15.761Z,54.57
2018-07-28T10:03:15.784Z,54.18
2018-07-28T10:04:15.802Z,54.47
2018-07-28T10:05:15.834Z,54.54
2018-07-28T10:06:36.865Z,54.47
2018-07-28T10:07:15.873Z,54.44
2018-07-28T10:08:15.888Z,54.18
2018-07-28T10:09:15.909Z,54.28
2018-07-28T10:10:16.166Z,54.35
2018-07-28T10:11:15.961Z,54.15
2018-07-28T10:12:36.993Z,54.47
2018-07-28T10:13:16.001Z,54.08
2018-07-28T10:14:16.024Z,54.28
2018-07-28T10:15:16.041Z,54.66
2018-07-28T10:16:16.085Z,54.57
2018-07-28T10:17:16.085Z,54.25
2018-07-28T10:18:37.125Z,54.38
2018-07-28T10:19:16.131Z,54.35
2018-07-28T10:20:16.163Z,54.47
2018-07-28T10:21:16.172Z,54.54
2018-07-28T10:22:16.206Z,54.28
2018-07-28T10:23:16.216Z,54.76
2018-07-28T10:24:37.302Z,54.64
2018-07-28T10:25:16.274Z,54.76
2018-07-28T10:26:16.282Z,54.44
2018-07-28T10:27:16.313Z,54.38
2018-07-28T10:28:16.334Z,54.47
2018-07-28T10:29:16.342Z,54.38
2018-07-28T10:30:37.383Z,54.38
2018-07-28T10:31:16.392Z,54.28
2018-07-28T10:32:16.411Z,54.76
2018-07-28T10:33:16.530Z,54.57
2018-07-28T10:34:16.469Z,54.57
2018-07-28T10:35:16.482Z,54.57
2018-07-28T10:36:37.524Z,54.64
2018-07-28T10:37:16.531Z,54.64
2018-07-28T10:38:16.550Z,54.66
2018-07-28T10:39:16.564Z,54.66
2018-07-28T10:40:16.585Z,54.66
2018-07-28T10:41:16.614Z,54.28
2018-07-28T10:42:37.653Z,54.57
2018-07-28T10:43:16.652Z,54.44
2018-07-28T10:44:16.681Z,54.57
2018-07-28T10:45:16.705Z,54.76
2018-07-28T10:46:16.721Z,54.25
2018-07-28T10:47:16.739Z,54.66
2018-07-28T10:48:37.780Z,54.66
2018-07-28T10:49:16.791Z,54.38
2018-07-28T10:50:16.807Z,54.57
2018-07-28T10:51:16.825Z,54.66
2018-07-28T10:52:16.852Z,54.47
2018-07-28T10:53:16.869Z,54.66
2018-07-28T10:54:37.916Z,54.96
2018-07-28T10:55:16.921Z,54.38
2018-07-28T10:56:16.939Z,54.57
2018-07-28T10:57:16.958Z,54.66
2018-07-28T10:58:16.993Z,54.66
2018-07-28T10:59:17.006Z,54.66
2018-07-28T11:00:38.059Z,54.66
2018-07-28T11:01:17.044Z,54.76
2018-07-28T11:02:17.077Z,54.76
2018-07-28T11:03:17.089Z,54.76
2018-07-28T11:04:17.123Z,54.57
2018-07-28T11:05:17.177Z,54.57
2018-07-28T11:06:38.171Z,54.76
2018-07-28T11:07:17.176Z,54.57
2018-07-28T11:08:17.198Z,54.96
2018-07-28T11:09:17.232Z,54.47
2018-07-28T11:10:17.246Z,54.47
2018-07-28T11:11:17.263Z,54.66
2018-07-28T11:12:38.315Z,54.66
2018-07-28T11:13:17.311Z,54.66
2018-07-28T11:14:17.329Z,54.47
2018-07-28T11:15:17.388Z,54.47
2018-07-28T11:16:17.384Z,54.47
2018-07-28T11:17:17.395Z,54.66
2018-07-28T11:18:38.469Z,54.47
2018-07-28T11:19:17.450Z,54.57
2018-07-28T11:20:17.463Z,54.66
2018-07-28T11:21:17.481Z,54.76
2018-07-28T11:22:17.514Z,54.66
2018-07-28T11:23:17.534Z,54.57
2018-07-28T11:24:38.578Z,54.66
2018-07-28T11:25:17.620Z,54.47
2018-07-28T11:26:17.666Z,54.76
2018-07-28T11:27:17.616Z,55.25
2018-07-28T11:28:17.688Z,54.86
2018-07-28T11:29:17.711Z,54.57
2018-07-28T11:30:38.735Z,54.86
2018-07-28T11:31:17.741Z,54.86
2018-07-28T11:32:17.748Z,54.57
2018-07-28T11:33:17.804Z,54.57
2018-07-28T11:34:17.769Z,54.76
2018-07-28T11:35:17.794Z,54.96
2018-07-28T11:36:38.838Z,54.76
2018-07-28T11:37:17.842Z,54.57
2018-07-28T11:38:17.892Z,54.66
2018-07-28T11:39:17.901Z,54.96
2018-07-28T11:40:17.898Z,54.76
2018-07-28T11:41:17.918Z,54.76
2018-07-28T11:42:38.980Z,54.86
2018-07-28T11:43:17.962Z,54.86
2018-07-28T11:44:18.035Z,54.57
2018-07-28T11:45:18.007Z,54.86
2018-07-28T11:46:18.024Z,54.57
2018-07-28T11:47:18.054Z,54.76
2018-07-28T11:48:39.087Z,54.96
2018-07-28T11:49:18.093Z,54.96
2018-07-28T11:50:18.115Z,55.25
2018-07-28T11:51:18.166Z,54.96
2018-07-28T11:52:18.189Z,54.96
2018-07-28T11:53:18.200Z,54.96
2018-07-28T11:54:39.221Z,55.25
2018-07-28T11:55:18.231Z,54.96
2018-07-28T11:56:18.248Z,54.76
2018-07-28T11:57:18.267Z,55.25
2018-07-28T11:58:18.375Z,54.96
2018-07-28T11:59:18.365Z,55.25
2018-07-28T12:00:39.355Z,55.15
2018-07-28T12:01:18.359Z,55.05
2018-07-28T12:02:18.377Z,55.25
2018-07-28T12:03:18.399Z,54.96
2018-07-28T12:04:18.420Z,54.96
2018-07-28T12:05:18.446Z,54.76
2018-07-28T12:06:39.476Z,54.76
2018-07-28T12:07:18.489Z,54.76
2018-07-28T12:08:18.513Z,55.13
2018-07-28T12:09:18.530Z,55.15
2018-07-28T12:10:18.550Z,54.96
2018-07-28T12:11:18.571Z,55.25
2018-07-28T12:12:39.633Z,55.15
2018-07-28T12:13:18.611Z,55.15
2018-07-28T12:14:18.682Z,54.96
2018-07-28T12:15:18.670Z,54.76
2018-07-28T12:16:18.686Z,54.76
2018-07-28T12:17:18.711Z,54.76
2018-07-28T12:18:39.770Z,54.96
2018-07-28T12:19:18.746Z,54.96
2018-07-28T12:20:18.772Z,54.96
2018-07-28T12:21:18.790Z,54.76
2018-07-28T12:22:18.821Z,55.25
2018-07-28T12:23:18.847Z,55.25
2018-07-28T12:24:39.876Z,54.96
2018-07-28T12:25:18.874Z,55.05
2018-07-28T12:26:18.896Z,54.96
2018-07-28T12:27:18.940Z,55.05
2018-07-28T12:28:18.942Z,55.05
2018-07-28T12:29:19.019Z,55.35
2018-07-28T12:30:40.057Z,55.05
2018-07-28T12:31:19.013Z,54.86
2018-07-28T12:32:19.029Z,54.96
2018-07-28T12:33:19.056Z,54.96
2018-07-28T12:34:19.080Z,54.96
2018-07-28T12:35:19.102Z,55.05
2018-07-28T12:36:40.131Z,54.96
2018-07-28T12:37:19.143Z,54.96
2018-07-28T12:38:19.167Z,54.86
2018-07-28T12:39:19.233Z,54.96
2018-07-28T12:40:19.212Z,55.05
2018-07-28T12:41:19.241Z,54.86
2018-07-28T12:42:40.271Z,55.05
2018-07-28T12:43:19.279Z,54.96
2018-07-28T12:44:19.295Z,54.96
2018-07-28T12:45:19.343Z,54.86
2018-07-28T12:46:19.352Z,55.25
2018-07-28T12:47:19.358Z,54.96
2018-07-28T12:48:40.393Z,55.15
2018-07-28T12:49:19.402Z,55.05
2018-07-28T12:50:19.428Z,55.25
2018-07-28T12:51:19.530Z,55.25
2018-07-28T12:52:19.555Z,54.86